createdAt,value
2022-12-08T00:01:23.111Z,1.42
2022-12-08T00:03:50.324Z,1.63
2022-12-08T00:06:51.566Z,1.60
2022-12-08T00:09:23.656Z,1.02
2022-12-08T00:11:53.128Z,1.50
2022-12-08T00:14:25.076Z,1.20
2022-12-08T00:16:51.810Z,1.25
2022-12-08T00:19:18.294Z,1.10
2022-12-08T00:21:44.940Z,1.55
2022-12-08T00:24:11.579Z,1.63
2022-12-08T00:26:38.297Z,2.83
2022-12-08T00:29:05.466Z,1.50
2022-12-08T00:31:32.181Z,1.95
2022-12-08T00:33:59.334Z,1.58
2022-12-08T00:36:25.898Z,2.13
2022-12-08T00:38:53.990Z,2.40
2022-12-08T00:41:41.764Z,2.17
2022-12-08T00:44:08.855Z,3.22
2022-12-08T00:46:35.427Z,2.05
2022-12-08T00:49:02.721Z,1.98
2022-12-08T00:51:29.253Z,1.80
2022-12-08T00:53:55.722Z,2.17
2022-12-08T00:56:22.246Z,2.08
2022-12-08T00:58:48.748Z,1.70
2022-12-08T01:01:15.534Z,1.92
2022-12-08T01:03:43.027Z,2.25
2022-12-08T01:06:10.342Z,1.50
2022-12-08T01:08:37.712Z,1.98
2022-12-08T01:11:10.949Z,1.95
2022-12-08T01:13:37.767Z,1.88
2022-12-08T01:16:04.865Z,3.00
2022-12-08T01:18:31.525Z,3.42
2022-12-08T01:21:05.922Z,3.58
2022-12-08T01:23:32.841Z,5.07
2022-12-08T01:26:07.152Z,6.32
2022-12-08T01:28:33.989Z,5.00
2022-12-08T01:31:01.348Z,3.78
2022-12-08T01:33:28.793Z,4.25
2022-12-08T01:35:58.081Z,2.90
2022-12-08T01:38:24.388Z,3.92
2022-12-08T01:40:50.756Z,3.50
2022-12-08T01:43:19.586Z,2.92
2022-12-08T01:45:46.934Z,4.43
2022-12-08T01:48:27.090Z,4.25
2022-12-08T01:50:57.456Z,4.13
2022-12-08T01:53:30.209Z,3.58
2022-12-08T01:56:08.669Z,2.90
2022-12-08T01:58:39.402Z,2.60
2022-12-08T02:01:06.435Z,1.92
2022-12-08T02:03:55.134Z,1.83
2022-12-08T02:06:21.959Z,1.58
2022-12-08T02:08:49.865Z,1.20
2022-12-08T02:11:16.429Z,1.35
2022-12-08T02:13:45.493Z,1.38
2022-12-08T02:16:49.557Z,1.02
2022-12-08T02:19:47.159Z,1.05
2022-12-08T02:22:43.930Z,0.88
2022-12-08T02:25:32.346Z,1.07
2022-12-08T02:28:14.002Z,1.55
2022-12-08T02:31:19.618Z,1.70
2022-12-08T02:34:00.486Z,1.40
2022-12-08T02:36:51.225Z,1.65
2022-12-08T02:39:40.834Z,1.83
2022-12-08T02:45:25.615Z,2.40
2022-12-08T02:47:52.669Z,1.77
2022-12-08T02:50:19.868Z,2.22
2022-12-08T02:52:48.088Z,2.40
2022-12-08T02:55:26.397Z,3.80
2022-12-08T02:58:07.478Z,3.45
2022-12-08T03:01:02.849Z,3.10
2022-12-08T03:03:41.519Z,2.03
2022-12-08T03:06:25.849Z,3.00
2022-12-08T03:09:04.985Z,3.23
2022-12-08T03:11:42.474Z,1.70
2022-12-08T03:14:11.431Z,2.10
2022-12-08T03:16:40.201Z,1.90
2022-12-08T03:19:15.644Z,2.83
2022-12-08T03:21:45.833Z,3.05
2022-12-08T03:24:13.548Z,4.30
2022-12-08T03:26:56.847Z,5.60
2022-12-08T03:29:23.777Z,6.20
2022-12-08T03:31:56.077Z,5.88
2022-12-08T03:36:51.818Z,5.25
2022-12-08T03:39:18.435Z,4.55
2022-12-08T03:41:45.806Z,5.93
2022-12-08T03:44:12.789Z,5.85
2022-12-08T03:46:39.309Z,4.53
2022-12-08T03:49:05.717Z,2.95
2022-12-08T03:51:32.089Z,2.00
2022-12-08T03:53:58.697Z,2.17
2022-12-08T03:56:25.207Z,2.40
2022-12-08T03:58:52.377Z,2.40
2022-12-08T04:01:19.042Z,2.40
2022-12-08T04:03:45.540Z,2.72
2022-12-08T04:06:12.147Z,2.50
2022-12-08T04:08:38.889Z,2.20
2022-12-08T04:11:06.872Z,3.30
2022-12-08T04:13:37.385Z,2.28
2022-12-08T04:16:05.004Z,4.00
2022-12-08T04:18:32.571Z,2.37
2022-12-08T04:21:01.836Z,2.03
2022-12-08T04:23:28.234Z,2.40
2022-12-08T04:25:54.569Z,2.25
2022-12-08T04:28:21.689Z,1.95
2022-12-08T04:30:49.547Z,2.40
2022-12-08T04:33:16.168Z,2.17
2022-12-08T04:35:42.543Z,2.30
2022-12-08T04:38:09.036Z,2.45
2022-12-08T04:40:35.457Z,1.67
2022-12-08T04:43:01.882Z,1.45
2022-12-08T04:45:28.289Z,1.70
2022-12-08T04:47:54.715Z,1.70
2022-12-08T04:50:21.152Z,1.50
2022-12-08T04:52:47.694Z,2.42
2022-12-08T04:55:14.092Z,1.60
2022-12-08T04:57:40.728Z,1.58
2022-12-08T05:00:08.008Z,1.92
2022-12-08T05:02:34.565Z,1.85
2022-12-08T05:05:01.082Z,1.80
2022-12-08T05:07:28.333Z,2.47
2022-12-08T05:09:54.680Z,1.70
2022-12-08T05:12:21.140Z,1.63
2022-12-08T05:14:48.302Z,1.92
2022-12-08T05:17:19.708Z,2.22
2022-12-08T05:19:46.651Z,2.03
2022-12-08T05:22:13.096Z,1.52
2022-12-08T05:24:45.632Z,1.35
2022-12-08T05:27:13.756Z,1.33
2022-12-08T05:29:40.153Z,1.20
2022-12-08T05:32:06.780Z,0.50
2022-12-08T05:34:33.394Z,0.60
2022-12-08T05:36:59.942Z,0.70
2022-12-08T05:39:26.443Z,0.80
2022-12-08T05:41:52.847Z,0.50
2022-12-08T05:44:19.416Z,0.40
2022-12-08T05:46:45.827Z,0.70
2022-12-08T05:49:12.292Z,0.90
2022-12-08T05:51:38.708Z,1.58
2022-12-08T05:54:05.195Z,0.60
2022-12-08T05:56:31.802Z,0.98
2022-12-08T05:58:58.227Z,0.90
2022-12-08T06:01:25.783Z,0.50
2022-12-08T06:03:52.320Z,0.50
2022-12-08T06:06:19.048Z,0.30
2022-12-08T06:08:45.543Z,0.63
2022-12-08T06:11:19.806Z,0.50
2022-12-08T06:13:46.332Z,0.40
2022-12-08T06:16:15.474Z,0.52
2022-12-08T06:18:42.021Z,0.60
2022-12-08T06:21:13.603Z,0.40
2022-12-08T06:23:40.179Z,1.08
2022-12-08T06:26:09.444Z,0.47
2022-12-08T06:28:36.254Z,0.60
2022-12-08T06:31:16.195Z,0.50
2022-12-08T06:33:43.257Z,0.70
2022-12-08T06:36:11.328Z,0.50
2022-12-08T06:38:42.940Z,0.60
2022-12-08T06:41:10.336Z,0.50
2022-12-08T06:43:36.874Z,0.60
2022-12-08T06:46:06.386Z,0.47
2022-12-08T06:48:33.111Z,0.70
2022-12-08T06:51:10.711Z,1.30
2022-12-08T06:53:37.939Z,1.90
2022-12-08T06:56:04.827Z,1.80
2022-12-08T06:58:31.604Z,2.27
2022-12-08T07:00:58.127Z,2.47
2022-12-08T07:03:24.544Z,2.77
2022-12-08T07:06:00.249Z,2.10
2022-12-08T07:08:30.041Z,1.63
2022-12-08T07:10:56.548Z,2.07
2022-12-08T07:13:22.989Z,1.67
2022-12-08T07:15:49.347Z,1.20
2022-12-08T07:18:15.843Z,1.20
2022-12-08T07:20:42.266Z,1.23
2022-12-08T07:23:08.634Z,1.30
2022-12-08T07:25:35.134Z,1.07
2022-12-08T07:28:07.120Z,1.27
2022-12-08T07:30:33.585Z,1.33
2022-12-08T07:33:00.048Z,1.10
2022-12-08T07:35:26.653Z,0.80
2022-12-08T07:37:53.003Z,0.80
2022-12-08T07:40:19.426Z,0.80
2022-12-08T07:42:52.086Z,1.30
2022-12-08T07:45:18.694Z,0.70
2022-12-08T07:47:45.178Z,1.03
2022-12-08T07:50:12.137Z,0.87
2022-12-08T07:52:38.580Z,0.70
2022-12-08T07:55:07.452Z,0.73
2022-12-08T07:57:33.995Z,0.57
2022-12-08T08:00:00.329Z,0.70
2022-12-08T08:02:26.838Z,0.80
2022-12-08T08:04:53.653Z,1.00
2022-12-08T08:07:20.457Z,0.80
2022-12-08T08:09:46.800Z,0.90
2022-12-08T08:15:05.626Z,1.03
2022-12-08T08:19:58.511Z,0.60
2022-12-08T08:22:25.819Z,0.80
2022-12-08T08:24:52.893Z,0.80
2022-12-08T08:27:20.787Z,0.40
2022-12-08T08:29:47.237Z,0.47
2022-12-08T08:32:14.266Z,0.70
2022-12-08T08:34:41.063Z,0.53
2022-12-08T08:37:07.740Z,0.60
2022-12-08T08:39:34.617Z,0.70
2022-12-08T08:42:01.444Z,0.70
2022-12-08T08:44:28.355Z,1.00
2022-12-08T08:46:55.591Z,1.00
2022-12-08T08:49:22.137Z,1.10
2022-12-08T08:51:48.617Z,0.90
2022-12-08T08:54:15.450Z,1.37
2022-12-08T08:56:41.953Z,1.00
2022-12-08T08:59:09.829Z,0.53
2022-12-08T09:01:36.566Z,0.70
2022-12-08T09:04:03.456Z,1.20
2022-12-08T09:06:30.237Z,0.73
2022-12-08T09:08:57.045Z,1.30
2022-12-08T09:11:24.080Z,0.80
2022-12-08T09:13:53.321Z,1.10
2022-12-08T09:16:23.974Z,0.57
2022-12-08T09:18:54.121Z,0.90
2022-12-08T09:21:24.226Z,1.00
2022-12-08T09:23:53.413Z,1.00
2022-12-08T09:26:26.013Z,0.90
2022-12-08T09:28:54.234Z,0.90
2022-12-08T09:31:22.818Z,0.70
2022-12-08T09:33:51.680Z,0.50
2022-12-08T09:36:19.021Z,0.90
2022-12-08T09:38:49.241Z,0.73
2022-12-08T09:41:37.474Z,0.77
2022-12-08T09:44:32.183Z,0.70
2022-12-08T09:47:00.372Z,1.05
2022-12-08T09:49:45.069Z,0.70
2022-12-08T09:52:37.066Z,0.63
2022-12-08T09:55:14.607Z,0.73
2022-12-08T09:57:44.077Z,0.50
2022-12-08T10:00:14.502Z,0.60
2022-12-08T10:02:41.898Z,0.53
2022-12-08T10:05:13.767Z,0.60
2022-12-08T10:08:01.983Z,0.75
2022-12-08T10:10:50.275Z,0.50
2022-12-08T10:13:43.805Z,0.77
2022-12-08T10:16:30.130Z,0.73
2022-12-08T10:19:09.223Z,0.80
2022-12-08T10:24:26.360Z,1.27
2022-12-08T10:26:55.140Z,0.67
2022-12-08T10:29:22.070Z,1.23
2022-12-08T10:31:50.976Z,0.90
2022-12-08T10:34:25.688Z,1.00
2022-12-08T10:36:57.344Z,0.80
2022-12-08T10:39:34.571Z,1.08
2022-12-08T10:42:14.446Z,1.60
2022-12-08T10:45:10.128Z,0.77
2022-12-08T10:47:44.860Z,0.93
2022-12-08T10:50:23.703Z,1.00
2022-12-08T10:53:12.437Z,1.00
2022-12-08T10:55:50.409Z,5.50
2022-12-08T10:58:37.086Z,1.00
2022-12-08T11:01:31.165Z,1.07
2022-12-08T11:04:04.112Z,1.10
2022-12-08T11:06:30.388Z,1.20
2022-12-08T11:08:59.832Z,1.60
2022-12-08T11:11:44.586Z,1.63
2022-12-08T11:14:25.573Z,1.60
2022-12-08T11:16:55.157Z,1.50
2022-12-08T11:19:25.673Z,2.17
2022-12-08T11:21:52.141Z,2.10
2022-12-08T11:24:23.211Z,2.33
2022-12-08T11:26:59.130Z,2.37
2022-12-08T11:29:27.597Z,2.40
2022-12-08T11:32:01.226Z,1.90
2022-12-08T11:34:39.107Z,2.03
2022-12-08T11:37:08.636Z,1.60
2022-12-08T11:39:47.048Z,2.00
2022-12-08T11:42:17.781Z,4.57
2022-12-08T11:44:58.784Z,1.93
2022-12-08T11:47:31.569Z,2.97
2022-12-08T11:50:20.070Z,2.10
2022-12-08T11:52:49.704Z,1.43
2022-12-08T11:55:26.369Z,1.27
2022-12-08T11:57:54.823Z,1.20
2022-12-08T12:00:21.341Z,1.53
2022-12-08T12:02:59.211Z,1.20
2022-12-08T12:08:44.140Z,0.80
2022-12-08T12:11:43.745Z,1.53
2022-12-08T12:14:18.827Z,1.50
2022-12-08T12:16:54.183Z,1.37
2022-12-08T12:19:22.795Z,1.50
2022-12-08T12:21:55.159Z,1.15
2022-12-08T12:24:30.473Z,1.30
2022-12-08T12:27:15.216Z,1.08
2022-12-08T12:29:55.577Z,1.08
2022-12-08T12:32:23.904Z,1.00
2022-12-08T12:34:55.262Z,1.42
2022-12-08T12:37:35.374Z,1.15
2022-12-08T12:40:06.237Z,1.50
2022-12-08T12:42:43.103Z,1.35
2022-12-08T12:45:18.315Z,1.10
2022-12-08T12:47:51.018Z,1.00
2022-12-08T12:50:34.266Z,1.33
2022-12-08T12:53:26.548Z,1.00
2022-12-08T12:55:59.005Z,1.05
2022-12-08T12:58:28.227Z,1.40
2022-12-08T13:01:09.876Z,1.00
2022-12-08T13:03:42.310Z,1.35
2022-12-08T13:06:14.604Z,1.63
2022-12-08T13:08:50.951Z,1.38
2022-12-08T13:11:17.435Z,1.35
2022-12-08T13:13:57.960Z,1.63
2022-12-08T13:16:27.306Z,1.40
2022-12-08T13:18:59.214Z,1.67
2022-12-08T13:21:34.642Z,1.90
2022-12-08T13:24:28.496Z,1.80
2022-12-08T13:27:04.901Z,1.58
2022-12-08T13:29:35.475Z,1.20
2022-12-08T13:32:05.422Z,1.67
2022-12-08T13:34:45.227Z,1.58
2022-12-08T13:37:11.621Z,1.60
2022-12-08T13:39:41.075Z,1.30
2022-12-08T13:42:24.830Z,1.52
2022-12-08T13:48:23.852Z,1.85
2022-12-08T13:53:22.419Z,1.48
2022-12-08T13:55:13.612Z,1.90
2022-12-08T13:57:33.961Z,1.65
2022-12-08T14:00:09.938Z,1.77
2022-12-08T14:02:45.318Z,1.90
2022-12-08T14:05:19.559Z,1.77
2022-12-08T14:07:51.923Z,2.00
2022-12-08T14:10:33.830Z,1.73
2022-12-08T14:13:06.265Z,2.15
2022-12-08T14:15:37.889Z,1.70
2022-12-08T14:18:06.251Z,2.30
2022-12-08T14:20:51.752Z,1.85
2022-12-08T14:23:21.247Z,2.28
2022-12-08T14:25:48.169Z,2.03
2022-12-08T14:28:14.725Z,2.90
2022-12-08T14:30:41.251Z,2.20
2022-12-08T14:33:14.892Z,3.05
2022-12-08T14:35:41.433Z,2.45
2022-12-08T14:38:16.851Z,2.65
2022-12-08T14:41:07.785Z,2.03
2022-12-08T14:43:34.602Z,1.92
2022-12-08T14:46:20.758Z,2.30
2022-12-08T14:48:47.525Z,1.58
2022-12-08T14:51:20.358Z,1.63
2022-12-08T14:54:08.569Z,1.23
2022-12-08T14:56:40.596Z,1.02
2022-12-08T14:59:14.394Z,0.80
2022-12-08T15:01:42.891Z,1.33
2022-12-08T15:04:24.131Z,1.35
2022-12-08T15:07:02.494Z,1.53
2022-12-08T15:09:36.608Z,1.90
2022-12-08T15:12:13.758Z,1.63
2022-12-08T15:14:55.361Z,1.50
2022-12-08T15:17:40.058Z,2.25
2022-12-08T15:20:31.669Z,2.33
2022-12-08T15:23:01.960Z,1.80
2022-12-08T15:25:28.485Z,2.10
2022-12-08T15:27:56.414Z,2.33
2022-12-08T15:30:23.312Z,2.33
2022-12-08T15:32:52.231Z,2.50
2022-12-08T15:35:20.178Z,2.90
2022-12-08T15:37:46.589Z,2.60
2022-12-08T15:40:22.738Z,2.30
2022-12-08T15:42:49.645Z,3.58
2022-12-08T15:45:17.257Z,2.40
2022-12-08T15:47:44.944Z,2.80
2022-12-08T15:50:17.004Z,2.20
2022-12-08T15:52:45.712Z,2.25
2022-12-08T15:55:16.381Z,1.57
2022-12-08T16:00:52.372Z,2.50
2022-12-08T16:04:13.728Z,3.87
2022-12-08T16:09:19.295Z,4.63
2022-12-08T16:12:07.219Z,4.80
2022-12-08T16:15:39.193Z,5.03
2022-12-08T16:17:21.192Z,5.57
2022-12-08T16:19:50.481Z,5.15
2022-12-08T16:25:22.307Z,4.43
2022-12-08T16:28:01.240Z,3.00
2022-12-08T16:30:29.837Z,3.10
2022-12-08T16:32:56.229Z,3.40
2022-12-08T16:35:22.835Z,3.15
2022-12-08T16:37:49.154Z,3.05
2022-12-08T16:40:18.673Z,2.67
2022-12-08T16:42:49.838Z,3.03
2022-12-08T16:45:20.962Z,3.77
2022-12-08T16:47:52.979Z,4.10
2022-12-08T16:50:30.916Z,4.25
2022-12-08T16:53:05.404Z,3.53
2022-12-08T16:55:33.026Z,4.43
2022-12-08T16:57:59.695Z,4.97
2022-12-08T17:00:28.456Z,4.53
2022-12-08T17:02:55.296Z,5.00
2022-12-08T17:05:23.933Z,4.73
2022-12-08T17:07:53.241Z,4.77
2022-12-08T17:10:25.147Z,5.45
2022-12-08T17:12:52.033Z,4.97
2022-12-08T17:15:21.331Z,5.93
2022-12-08T17:17:48.377Z,6.67
2022-12-08T17:20:18.184Z,6.40
2022-12-08T17:22:45.313Z,6.37
2022-12-08T17:25:11.801Z,6.37
2022-12-08T17:27:39.497Z,7.23
2022-12-08T17:30:11.127Z,7.53
2022-12-08T17:32:38.260Z,8.52
2022-12-08T17:35:05.477Z,7.10
2022-12-08T17:37:32.339Z,6.30
2022-12-08T17:39:58.714Z,6.20
2022-12-08T17:42:27.079Z,6.30
2022-12-08T17:44:54.438Z,6.17
2022-12-08T17:47:21.243Z,5.93
2022-12-08T17:49:47.676Z,6.80
2022-12-08T17:52:14.118Z,5.77
2022-12-08T17:54:40.596Z,5.80
2022-12-08T17:57:06.997Z,5.57
2022-12-08T17:59:33.549Z,6.67
2022-12-08T18:02:00.284Z,6.07
2022-12-08T18:04:27.995Z,5.87
2022-12-08T18:06:54.887Z,6.50
2022-12-08T18:09:21.409Z,6.57
2022-12-08T18:11:47.918Z,7.77
2022-12-08T18:14:15.174Z,5.57
2022-12-08T18:16:44.895Z,6.10
2022-12-08T18:19:13.021Z,5.83
2022-12-08T18:21:40.361Z,6.00
2022-12-08T18:24:08.191Z,5.63
2022-12-08T18:26:35.092Z,6.53
2022-12-08T18:29:01.718Z,6.73
2022-12-08T18:31:28.369Z,7.43
2022-12-08T18:33:54.914Z,7.10
2022-12-08T18:36:24.386Z,6.87
2022-12-08T18:38:52.100Z,7.27
2022-12-08T18:41:21.123Z,8.27
2022-12-08T18:43:47.425Z,6.97
2022-12-08T18:46:15.235Z,8.97
2022-12-08T18:48:47.455Z,9.40
2022-12-08T18:51:19.495Z,9.32
2022-12-08T18:53:46.696Z,9.75
2022-12-08T18:56:27.739Z,11.43
2022-12-08T18:59:01.271Z,13.63
2022-12-08T19:01:30.222Z,9.70
2022-12-08T19:06:48.286Z,7.17
2022-12-08T19:09:15.899Z,8.73
2022-12-08T19:11:42.895Z,9.10
2022-12-08T19:14:09.591Z,9.53
2022-12-08T19:16:38.680Z,9.20
2022-12-08T19:19:05.474Z,10.77
2022-12-08T19:21:32.925Z,12.03
2022-12-08T19:24:00.004Z,14.67
2022-12-08T19:26:27.937Z,13.93
2022-12-08T19:28:54.788Z,14.20
2022-12-08T19:31:21.474Z,11.10
2022-12-08T19:33:47.944Z,11.23
2022-12-08T19:36:18.425Z,15.87
2022-12-08T19:39:03.886Z,16.67
2022-12-08T19:41:49.379Z,21.30
2022-12-08T19:44:43.467Z,24.07
2022-12-08T19:47:10.059Z,24.97
2022-12-08T19:49:37.267Z,26.07
2022-12-08T19:52:05.601Z,23.13
2022-12-08T19:54:32.425Z,28.00
2022-12-08T19:56:58.934Z,23.80
2022-12-08T19:59:30.375Z,18.17
2022-12-08T20:01:58.233Z,15.73
2022-12-08T20:04:26.742Z,10.33
2022-12-08T20:06:55.178Z,12.63
2022-12-08T20:09:22.905Z,12.97
2022-12-08T20:11:50.854Z,13.77
2022-12-08T20:14:18.587Z,13.43
2022-12-08T20:16:45.266Z,13.03
2022-12-08T20:19:12.260Z,13.60
2022-12-08T20:21:40.174Z,13.00
2022-12-08T20:24:07.128Z,14.40
2022-12-08T20:26:33.911Z,15.53
2022-12-08T20:29:00.332Z,16.57
2022-12-08T20:31:29.637Z,17.87
2022-12-08T20:33:56.261Z,16.77
2022-12-08T20:36:24.421Z,16.13
2022-12-08T20:38:53.023Z,17.07
2022-12-08T20:41:20.722Z,19.80
2022-12-08T20:43:48.014Z,19.83
2022-12-08T20:46:17.207Z,18.83
2022-12-08T20:48:44.593Z,17.90
2022-12-08T20:51:19.304Z,18.90
2022-12-08T20:53:46.186Z,19.97
2022-12-08T20:56:18.302Z,19.33
2022-12-08T20:58:45.413Z,18.35
2022-12-08T21:01:14.534Z,16.73
2022-12-08T21:03:42.268Z,19.43
2022-12-08T21:06:09.339Z,20.13
2022-12-08T21:08:36.555Z,19.30
2022-12-08T21:11:04.406Z,19.33
2022-12-08T21:13:31.110Z,19.10
2022-12-08T21:15:58.077Z,19.03
2022-12-08T21:18:25.189Z,19.33
2022-12-08T21:20:52.752Z,22.57
2022-12-08T21:23:19.230Z,21.90
2022-12-08T21:25:47.098Z,20.00
2022-12-08T21:28:16.606Z,19.70
2022-12-08T21:30:44.719Z,19.53
2022-12-08T21:33:11.267Z,18.23
2022-12-08T21:35:38.231Z,17.80
2022-12-08T21:38:07.721Z,18.90
2022-12-08T21:40:35.226Z,19.10
2022-12-08T21:43:03.732Z,17.37
2022-12-08T21:45:30.874Z,20.00
2022-12-08T21:47:59.165Z,18.23
2022-12-08T21:50:26.005Z,19.90
2022-12-08T21:52:52.611Z,17.90
2022-12-08T21:55:20.285Z,17.90
2022-12-08T21:57:47.121Z,19.97
2022-12-08T22:00:16.246Z,19.00
2022-12-08T22:02:43.702Z,19.33
2022-12-08T22:05:11.143Z,18.37
2022-12-08T22:07:39.351Z,19.30
2022-12-08T22:10:09.960Z,19.10
2022-12-08T22:12:37.833Z,17.53
2022-12-08T22:15:06.562Z,18.40
2022-12-08T22:17:48.582Z,18.53
2022-12-08T22:20:15.923Z,18.55
2022-12-08T22:22:48.126Z,17.97
2022-12-08T22:25:21.540Z,17.67
2022-12-08T22:27:51.029Z,20.50
2022-12-08T22:30:26.161Z,19.80
2022-12-08T22:32:53.779Z,19.27
2022-12-08T22:35:20.856Z,19.77
2022-12-08T22:37:54.441Z,20.23
2022-12-08T22:40:23.905Z,20.27
2022-12-08T22:42:50.241Z,17.90
2022-12-08T22:45:16.879Z,19.20
2022-12-08T22:47:43.852Z,19.60
2022-12-08T22:50:11.087Z,22.03
2022-12-08T22:52:38.771Z,20.03
2022-12-08T22:55:08.636Z,21.10
2022-12-08T22:57:35.132Z,20.33
2022-12-08T23:00:01.569Z,19.10
2022-12-08T23:02:28.050Z,20.40
2022-12-08T23:04:57.777Z,19.63
2022-12-08T23:07:24.317Z,17.03
2022-12-08T23:09:50.643Z,17.87
2022-12-08T23:12:17.980Z,16.07
2022-12-08T23:14:44.542Z,16.17
2022-12-08T23:17:11.249Z,16.33
2022-12-08T23:19:38.824Z,17.33
2022-12-08T23:22:05.406Z,17.07
2022-12-08T23:24:31.896Z,17.63
2022-12-08T23:26:58.545Z,16.17
2022-12-08T23:29:25.158Z,17.13
2022-12-08T23:31:52.056Z,16.97
2022-12-08T23:34:18.588Z,15.23
2022-12-08T23:36:48.138Z,17.27
2022-12-08T23:39:17.724Z,16.90
2022-12-08T23:41:47.286Z,14.87
2022-12-08T23:44:13.684Z,11.33
2022-12-08T23:46:40.513Z,17.43
2022-12-08T23:49:07.181Z,17.20
2022-12-08T23:51:33.691Z,18.13
2022-12-08T23:54:05.030Z,18.50
2022-12-08T23:56:31.637Z,16.03
2022-12-08T23:59:00.314Z,17.63
